createdAt,value
2022-08-22T00:02:09.216Z,78.69
2022-08-22T00:03:04.819Z,74.80
2022-08-22T00:04:50.651Z,79.03
2022-08-22T00:07:20.163Z,77.65
2022-08-22T00:10:25.178Z,77.58
2022-08-22T00:13:07.781Z,77.83
2022-08-22T00:15:44.285Z,78.48
2022-08-22T00:18:14.179Z,77.98
2022-08-22T00:20:51.647Z,79.04
2022-08-22T00:23:33.323Z,79.30
2022-08-22T00:26:14.139Z,79.30
2022-08-22T00:28:47.306Z,79.46
2022-08-22T00:31:32.031Z,79.39
2022-08-22T00:34:07.240Z,80.15
2022-08-22T00:36:52.813Z,80.83
2022-08-22T00:39:31.882Z,80.75
2022-08-22T00:42:10.822Z,80.87
2022-08-22T00:44:57.964Z,80.82
2022-08-22T00:47:36.593Z,81.21
2022-08-22T00:50:06.246Z,80.62
2022-08-22T00:52:47.259Z,80.27
2022-08-22T00:55:28.197Z,80.49
2022-08-22T00:58:32.002Z,80.21
2022-08-22T01:01:05.700Z,80.93
2022-08-22T01:03:59.937Z,80.51
2022-08-22T01:07:00.753Z,80.71
2022-08-22T01:10:14.872Z,80.99
2022-08-22T01:13:02.674Z,80.35
2022-08-22T01:15:34.139Z,80.62
2022-08-22T01:18:21.909Z,80.27
2022-08-22T01:21:10.398Z,80.50
2022-08-22T01:24:10.922Z,81.13
2022-08-22T01:26:49.763Z,80.86
2022-08-22T01:29:37.360Z,81.02
2022-08-22T01:32:42.728Z,81.47
2022-08-22T01:35:31.270Z,81.31
2022-08-22T01:38:23.079Z,81.37
2022-08-22T01:41:37.591Z,81.61
2022-08-22T01:44:26.361Z,81.99
2022-08-22T01:47:05.873Z,81.53
2022-08-22T01:49:35.361Z,81.33
2022-08-22T01:52:09.617Z,80.24
2022-08-22T01:54:58.262Z,79.82
2022-08-22T01:57:26.578Z,80.36
2022-08-22T01:59:58.107Z,80.63
2022-08-22T02:02:27.924Z,80.72
2022-08-22T02:05:03.096Z,80.91
2022-08-22T02:07:59.514Z,81.01
2022-08-22T02:10:52.417Z,81.61
2022-08-22T02:13:33.586Z,81.97
2022-08-22T02:16:21.563Z,81.22
2022-08-22T02:19:03.859Z,80.54
2022-08-22T02:21:49.329Z,79.22
2022-08-22T02:24:34.494Z,79.88
2022-08-22T02:27:27.156Z,79.37
2022-08-22T02:30:06.576Z,80.59
2022-08-22T02:32:42.164Z,80.09
2022-08-22T02:35:25.738Z,80.69
2022-08-22T02:38:13.376Z,80.84
2022-08-22T02:41:08.535Z,81.03
2022-08-22T02:43:56.783Z,80.26
2022-08-22T02:46:44.515Z,79.85
2022-08-22T02:49:31.067Z,80.55
2022-08-22T02:52:12.902Z,80.69
2022-08-22T02:54:45.477Z,79.66
2022-08-22T02:57:20.279Z,80.75
2022-08-22T03:00:31.720Z,80.54
2022-08-22T03:02:59.919Z,81.35
2022-08-22T03:05:46.615Z,81.49
2022-08-22T03:08:30.847Z,81.70
2022-08-22T03:11:01.324Z,82.95
2022-08-22T03:14:00.370Z,83.14
2022-08-22T03:16:36.839Z,82.79
2022-08-22T03:19:14.943Z,82.30
2022-08-22T03:22:03.671Z,82.32
2022-08-22T03:24:33.100Z,83.29
2022-08-22T03:26:59.682Z,83.25
2022-08-22T03:29:32.970Z,83.92
2022-08-22T03:32:10.485Z,83.68
2022-08-22T03:34:38.554Z,82.88
2022-08-22T03:37:16.224Z,83.12
2022-08-22T03:40:04.694Z,83.20
2022-08-22T03:42:52.070Z,83.79
2022-08-22T03:45:48.419Z,84.42
2022-08-22T03:48:45.059Z,83.77
2022-08-22T03:51:40.971Z,84.03
2022-08-22T03:54:16.636Z,84.03
2022-08-22T03:57:20.194Z,83.05
2022-08-22T04:00:11.824Z,84.12
2022-08-22T04:02:58.612Z,84.45
2022-08-22T04:06:12.587Z,85.24
2022-08-22T04:08:54.954Z,85.12
2022-08-22T04:11:59.779Z,85.17
2022-08-22T04:14:59.932Z,85.36
2022-08-22T04:17:54.222Z,85.50
2022-08-22T04:20:47.556Z,84.44
2022-08-22T04:24:02.120Z,85.63
2022-08-22T04:26:42.230Z,84.62
2022-08-22T04:29:35.699Z,84.85
2022-08-22T04:32:14.835Z,85.14
2022-08-22T04:34:57.534Z,85.31
2022-08-22T04:37:39.030Z,85.40
2022-08-22T04:40:17.810Z,85.70
2022-08-22T04:43:11.230Z,86.27
2022-08-22T04:46:14.808Z,85.90
2022-08-22T04:48:58.827Z,84.93
2022-08-22T04:51:32.141Z,85.40
2022-08-22T04:54:05.779Z,85.86
2022-08-22T04:56:54.810Z,85.00
2022-08-22T04:59:24.297Z,84.96
2022-08-22T05:01:56.124Z,85.46
2022-08-22T05:04:44.315Z,85.43
2022-08-22T05:07:18.707Z,84.27
2022-08-22T05:09:51.380Z,84.24
2022-08-22T05:12:30.559Z,83.87
2022-08-22T05:15:10.210Z,83.25
2022-08-22T05:17:40.329Z,83.29
2022-08-22T05:20:13.643Z,82.57
2022-08-22T05:22:46.980Z,82.32
2022-08-22T05:25:20.668Z,83.22
2022-08-22T05:27:56.365Z,82.81
2022-08-22T05:30:31.520Z,82.07
2022-08-22T05:33:20.722Z,82.33
2022-08-22T05:35:57.725Z,81.55
2022-08-22T05:38:30.766Z,81.35
2022-08-22T05:41:05.120Z,81.12
2022-08-22T05:43:37.411Z,81.11
2022-08-22T05:46:07.069Z,81.08
2022-08-22T05:48:42.323Z,80.95
2022-08-22T05:51:25.344Z,80.98
2022-08-22T05:54:06.351Z,80.94
2022-08-22T05:56:38.735Z,81.32
2022-08-22T05:59:15.574Z,80.67
2022-08-22T06:02:08.453Z,79.90
2022-08-22T06:04:47.555Z,80.18
2022-08-22T06:07:25.950Z,79.22
2022-08-22T06:10:17.385Z,79.91
2022-08-22T06:13:11.542Z,78.36
2022-08-22T06:16:02.932Z,78.98
2022-08-22T06:18:31.784Z,77.36
2022-08-22T06:21:02.299Z,75.28
2022-08-22T06:23:45.847Z,75.46
2022-08-22T06:26:20.528Z,74.82
2022-08-22T06:28:55.250Z,72.35
2022-08-22T06:31:31.423Z,72.76
2022-08-22T06:34:05.200Z,72.59
2022-08-22T06:36:35.207Z,70.47
2022-08-22T06:39:20.622Z,71.87
2022-08-22T06:42:16.312Z,72.38
2022-08-22T06:44:46.739Z,72.45
2022-08-22T06:47:19.108Z,73.44
2022-08-22T06:49:46.372Z,73.45
2022-08-22T06:52:25.047Z,73.31
2022-08-22T06:55:04.349Z,72.19
2022-08-22T06:57:56.542Z,71.39
2022-08-22T07:00:24.781Z,70.68
2022-08-22T07:03:24.002Z,71.39
2022-08-22T07:05:54.987Z,69.87
2022-08-22T07:08:24.234Z,67.75
2022-08-22T07:11:21.889Z,65.93
2022-08-22T07:14:04.492Z,67.26
2022-08-22T07:16:35.723Z,67.34
2022-08-22T07:19:02.555Z,65.72
2022-08-22T07:21:45.489Z,65.99
2022-08-22T07:24:16.365Z,66.36
2022-08-22T07:27:05.843Z,65.42
2022-08-22T07:29:45.971Z,63.64
2022-08-22T07:32:34.250Z,66.62
2022-08-22T07:35:10.440Z,63.97
2022-08-22T07:37:48.119Z,66.76
2022-08-22T07:40:27.501Z,64.63
2022-08-22T07:43:00.623Z,63.48
2022-08-22T07:45:35.341Z,63.73
2022-08-22T07:48:25.110Z,62.71
2022-08-22T07:51:13.651Z,63.50
2022-08-22T07:54:00.632Z,62.44
2022-08-22T07:57:02.800Z,61.41
2022-08-22T07:59:33.326Z,64.35
2022-08-22T08:02:04.929Z,63.37
2022-08-22T08:04:39.987Z,62.69
2022-08-22T08:07:10.720Z,61.61
2022-08-22T08:09:52.312Z,60.51
2022-08-22T08:12:26.119Z,60.82
2022-08-22T08:14:55.134Z,59.90
2022-08-22T08:17:34.476Z,58.43
2022-08-22T08:20:08.993Z,58.44
2022-08-22T08:22:37.581Z,58.14
2022-08-22T08:25:06.841Z,58.05
2022-08-22T08:27:56.902Z,56.69
2022-08-22T08:30:35.570Z,57.00
2022-08-22T08:33:25.808Z,57.38
2022-08-22T08:36:26.451Z,59.09
2022-08-22T08:39:00.513Z,56.80
2022-08-22T08:41:44.474Z,60.61
2022-08-22T08:44:37.729Z,57.14
2022-08-22T08:47:39.897Z,56.64
2022-08-22T08:50:18.611Z,57.16
2022-08-22T08:52:52.188Z,59.36
2022-08-22T08:55:41.539Z,56.96
2022-08-22T08:58:25.683Z,55.06
2022-08-22T09:01:16.574Z,54.19
2022-08-22T09:03:58.042Z,56.75
2022-08-22T09:06:56.606Z,55.57
2022-08-22T09:09:52.303Z,55.51
2022-08-22T09:12:54.284Z,57.22
2022-08-22T09:19:04.610Z,52.11
2022-08-22T09:21:59.107Z,53.42
2022-08-22T09:25:06.161Z,53.30
2022-08-22T09:27:46.522Z,53.26
2022-08-22T09:30:17.492Z,53.74
2022-08-22T09:33:06.275Z,53.40
2022-08-22T09:35:58.990Z,51.18
2022-08-22T09:38:55.671Z,53.47
2022-08-22T09:41:31.609Z,53.43
2022-08-22T09:44:27.651Z,52.39
2022-08-22T09:47:24.345Z,50.78
2022-08-22T09:50:12.403Z,49.11
2022-08-22T09:53:30.568Z,48.47
2022-08-22T09:56:15.702Z,50.62
2022-08-22T09:59:01.020Z,49.81
2022-08-22T10:01:40.103Z,49.94
2022-08-22T10:04:14.460Z,49.32
2022-08-22T10:06:58.454Z,49.30
2022-08-22T10:09:42.703Z,49.85
2022-08-22T10:12:24.777Z,49.30
2022-08-22T10:14:51.470Z,48.54
2022-08-22T10:17:24.884Z,48.17
2022-08-22T10:19:59.082Z,50.22
2022-08-22T10:23:13.719Z,47.99
2022-08-22T10:25:44.839Z,47.80
2022-08-22T10:28:46.766Z,46.16
2022-08-22T10:31:41.159Z,47.97
2022-08-22T10:34:30.924Z,46.62
2022-08-22T10:37:46.085Z,48.99
2022-08-22T10:40:21.390Z,47.55
2022-08-22T10:42:54.753Z,45.58
2022-08-22T10:45:35.794Z,44.35
2022-08-22T10:48:08.008Z,44.41
2022-08-22T10:50:51.189Z,44.37
2022-08-22T10:53:35.936Z,45.92
2022-08-22T10:56:27.415Z,44.16
2022-08-22T10:59:10.962Z,45.73
2022-08-22T11:01:52.612Z,43.42
2022-08-22T11:04:41.254Z,45.15
2022-08-22T11:07:38.014Z,41.84
2022-08-22T11:10:27.050Z,43.49
2022-08-22T11:13:03.794Z,43.77
2022-08-22T11:15:46.184Z,43.53
2022-08-22T11:18:18.799Z,34.46
2022-08-22T11:21:07.290Z,35.66
2022-08-22T11:23:46.507Z,39.66
2022-08-22T11:26:47.215Z,40.81
2022-08-22T11:29:51.141Z,38.95
2022-08-22T11:32:37.771Z,39.64
2022-08-22T11:35:12.789Z,36.27
2022-08-22T11:37:43.465Z,37.42
2022-08-22T11:40:54.955Z,38.02
2022-08-22T11:43:44.015Z,36.44
2022-08-22T11:46:22.062Z,38.67
2022-08-22T11:49:27.329Z,36.53
2022-08-22T11:52:30.244Z,38.65
2022-08-22T11:55:08.963Z,36.69
2022-08-22T11:57:44.307Z,37.39
2022-08-22T12:00:20.709Z,38.78
2022-08-22T12:03:18.323Z,36.06
2022-08-22T12:06:02.722Z,35.01
2022-08-22T12:08:29.838Z,36.32
2022-08-22T12:11:12.246Z,38.20
2022-08-22T12:13:49.535Z,38.05
2022-08-22T12:16:34.661Z,40.02
2022-08-22T12:19:15.453Z,38.40
2022-08-22T12:21:57.152Z,37.60
2022-08-22T12:24:37.158Z,39.46
2022-08-22T12:27:28.873Z,40.96
2022-08-22T12:30:13.957Z,36.71
2022-08-22T12:33:22.039Z,36.20
2022-08-22T12:36:27.228Z,36.46
2022-08-22T12:38:54.035Z,36.64
2022-08-22T12:41:49.872Z,37.42
2022-08-22T12:44:26.918Z,38.28
2022-08-22T12:47:14.749Z,38.40
2022-08-22T12:50:21.615Z,36.15
2022-08-22T12:53:42.358Z,36.83
2022-08-22T12:56:27.766Z,36.79
2022-08-22T12:59:22.510Z,34.79
2022-08-22T13:01:54.201Z,33.90
2022-08-22T13:04:32.532Z,35.84
2022-08-22T13:07:07.483Z,35.57
2022-08-22T13:09:37.465Z,36.03
2022-08-22T13:12:24.206Z,35.91
2022-08-22T13:14:56.327Z,35.11
2022-08-22T13:17:25.883Z,32.73
2022-08-22T13:20:03.276Z,32.37
2022-08-22T13:22:34.986Z,34.36
2022-08-22T13:25:26.170Z,32.97
2022-08-22T13:28:04.201Z,34.67
2022-08-22T13:30:40.608Z,32.55
2022-08-22T13:33:22.321Z,33.36
2022-08-22T13:35:57.252Z,32.80
2022-08-22T13:38:39.942Z,32.40
2022-08-22T13:41:27.273Z,33.61
2022-08-22T13:44:08.766Z,34.30
2022-08-22T13:46:44.523Z,36.04
2022-08-22T13:49:36.809Z,35.10
2022-08-22T13:52:28.944Z,33.77
2022-08-22T13:55:11.458Z,33.83
2022-08-22T13:57:45.590Z,31.79
2022-08-22T14:00:22.348Z,32.45
2022-08-22T14:03:13.330Z,31.49
2022-08-22T14:05:44.796Z,31.54
2022-08-22T14:08:27.408Z,32.14
2022-08-22T14:11:01.442Z,32.61
2022-08-22T14:13:53.306Z,32.39
2022-08-22T14:16:24.853Z,31.74
2022-08-22T14:18:57.180Z,31.95
2022-08-22T14:21:40.697Z,31.70
2022-08-22T14:24:14.934Z,32.20
2022-08-22T14:26:52.152Z,32.06
2022-08-22T14:29:20.455Z,32.89
2022-08-22T14:32:04.534Z,32.30
2022-08-22T14:34:35.223Z,33.89
2022-08-22T14:37:38.952Z,33.59
2022-08-22T14:40:12.801Z,32.30
2022-08-22T14:42:49.955Z,32.59
2022-08-22T14:45:26.006Z,32.79
2022-08-22T14:48:31.588Z,33.08
2022-08-22T14:51:04.183Z,32.61
2022-08-22T14:53:34.548Z,30.10
2022-08-22T14:56:19.132Z,28.09
2022-08-22T14:58:50.759Z,25.66
2022-08-22T15:01:21.799Z,23.48
2022-08-22T15:03:54.991Z,21.92
2022-08-22T15:06:48.056Z,21.26
2022-08-22T15:09:33.286Z,19.84
2022-08-22T15:12:03.846Z,20.93
2022-08-22T15:14:45.495Z,19.40
2022-08-22T15:17:35.400Z,19.90
2022-08-22T15:20:22.796Z,19.55
2022-08-22T15:22:58.317Z,18.75
2022-08-22T15:25:31.314Z,18.52
2022-08-22T15:28:14.400Z,17.54
2022-08-22T15:31:05.348Z,17.57
2022-08-22T15:33:32.421Z,18.13
2022-08-22T15:36:20.882Z,16.38
2022-08-22T15:38:56.354Z,17.29
2022-08-22T15:41:23.001Z,17.04
2022-08-22T15:44:01.975Z,17.69
2022-08-22T15:46:33.808Z,17.11
2022-08-22T15:49:29.785Z,17.01
2022-08-22T15:52:01.118Z,16.19
2022-08-22T15:54:37.684Z,16.11
2022-08-22T15:57:11.766Z,16.51
2022-08-22T15:59:53.965Z,16.97
2022-08-22T16:02:42.013Z,15.59
2022-08-22T16:05:11.507Z,16.48
2022-08-22T16:07:43.293Z,16.58
2022-08-22T16:10:12.202Z,16.72
2022-08-22T16:12:41.074Z,16.77
2022-08-22T16:15:45.761Z,16.07
2022-08-22T16:18:42.647Z,15.72
2022-08-22T16:21:10.874Z,17.19
2022-08-22T16:23:46.773Z,17.10
2022-08-22T16:26:38.000Z,18.18
2022-08-22T16:29:30.232Z,16.99
2022-08-22T16:32:05.481Z,17.46
2022-08-22T16:34:38.084Z,17.03
2022-08-22T16:37:21.540Z,17.30
2022-08-22T16:40:09.371Z,17.21
2022-08-22T16:42:46.670Z,16.25
2022-08-22T16:45:30.800Z,17.91
2022-08-22T16:47:58.502Z,21.53
2022-08-22T16:50:31.268Z,23.59
2022-08-22T16:52:57.798Z,26.86
2022-08-22T16:55:30.487Z,28.03
2022-08-22T16:58:12.377Z,28.31
2022-08-22T17:00:42.045Z,27.68
2022-08-22T17:03:21.397Z,30.31
2022-08-22T17:06:06.268Z,29.54
2022-08-22T17:08:53.992Z,33.45
2022-08-22T17:11:42.513Z,33.37
2022-08-22T17:14:19.833Z,34.67
2022-08-22T17:17:12.771Z,36.95
2022-08-22T17:20:08.301Z,36.07
2022-08-22T17:22:58.063Z,37.97
2022-08-22T17:25:36.782Z,39.55
2022-08-22T17:28:33.998Z,40.09
2022-08-22T17:31:09.381Z,40.31
2022-08-22T17:33:54.228Z,41.26
2022-08-22T17:36:34.210Z,41.51
2022-08-22T17:39:15.927Z,43.85
2022-08-22T17:41:55.200Z,43.42
2022-08-22T17:44:43.707Z,43.41
2022-08-22T17:47:19.646Z,43.91
2022-08-22T17:49:56.766Z,45.14
2022-08-22T17:52:49.250Z,45.33
2022-08-22T17:55:19.944Z,47.10
2022-08-22T17:58:31.847Z,48.69
2022-08-22T18:01:13.661Z,50.35
2022-08-22T18:03:50.587Z,52.03
2022-08-22T18:06:29.950Z,50.62
2022-08-22T18:09:16.771Z,51.25
2022-08-22T18:11:49.977Z,53.42
2022-08-22T18:14:48.770Z,53.55
2022-08-22T18:17:30.584Z,55.12
2022-08-22T18:20:26.452Z,55.07
2022-08-22T18:23:21.472Z,54.78
2022-08-22T18:26:02.745Z,54.88
2022-08-22T18:28:40.241Z,55.75
2022-08-22T18:31:30.042Z,56.78
2022-08-22T18:34:04.893Z,57.25
2022-08-22T18:36:38.229Z,57.79
2022-08-22T18:39:15.327Z,58.66
2022-08-22T18:41:50.336Z,59.45
2022-08-22T18:44:44.223Z,57.76
2022-08-22T18:47:24.645Z,60.03
2022-08-22T18:49:54.623Z,59.84
2022-08-22T18:52:34.493Z,59.59
2022-08-22T18:55:31.156Z,59.36
2022-08-22T18:57:57.717Z,60.46
2022-08-22T19:00:42.880Z,60.41
2022-08-22T19:03:31.699Z,60.92
2022-08-22T19:06:24.334Z,61.60
2022-08-22T19:09:06.076Z,61.87
2022-08-22T19:11:51.134Z,61.96
2022-08-22T19:14:43.413Z,61.52
2022-08-22T19:17:25.100Z,62.03
2022-08-22T19:20:25.579Z,62.38
2022-08-22T19:23:32.609Z,62.27
2022-08-22T19:26:23.972Z,62.36
2022-08-22T19:28:53.008Z,62.72
2022-08-22T19:31:25.392Z,62.94
2022-08-22T19:34:26.084Z,63.99
2022-08-22T19:37:32.100Z,63.94
2022-08-22T19:40:08.047Z,64.68
2022-08-22T19:42:38.368Z,64.10
2022-08-22T19:45:17.849Z,63.74
2022-08-22T19:47:57.381Z,64.08
2022-08-22T19:50:31.054Z,64.31
2022-08-22T19:53:05.150Z,64.32
2022-08-22T19:55:37.723Z,64.82
2022-08-22T19:58:04.214Z,65.30
2022-08-22T20:00:48.386Z,66.21
2022-08-22T20:03:40.961Z,65.67
2022-08-22T20:06:40.724Z,65.66
2022-08-22T20:09:25.375Z,65.67
2022-08-22T20:12:15.109Z,66.51
2022-08-22T20:14:44.315Z,65.90
2022-08-22T20:17:37.802Z,65.30
2022-08-22T20:20:29.723Z,66.21
2022-08-22T20:23:25.682Z,66.33
2022-08-22T20:25:55.932Z,65.91
2022-08-22T20:28:31.563Z,66.61
2022-08-22T20:31:01.258Z,66.41
2022-08-22T20:33:33.267Z,66.27
2022-08-22T20:36:05.234Z,66.76
2022-08-22T20:38:38.149Z,66.72
2022-08-22T20:41:22.821Z,66.38
2022-08-22T20:43:57.620Z,66.54
2022-08-22T20:46:55.350Z,66.42
2022-08-22T20:49:31.647Z,66.90
2022-08-22T20:52:03.174Z,66.92
2022-08-22T20:54:34.022Z,67.04
2022-08-22T20:57:17.100Z,66.75
2022-08-22T21:00:09.943Z,66.75
2022-08-22T21:02:44.235Z,66.66
2022-08-22T21:05:13.962Z,66.89
2022-08-22T21:07:43.740Z,67.06
2022-08-22T21:10:41.168Z,67.86
2022-08-22T21:13:17.089Z,67.88
2022-08-22T21:15:56.058Z,67.41
2022-08-22T21:18:37.758Z,68.51
2022-08-22T21:21:18.120Z,68.24
2022-08-22T21:24:04.497Z,67.76
2022-08-22T21:26:36.933Z,67.48
2022-08-22T21:29:18.424Z,67.46
2022-08-22T21:31:53.075Z,67.62
2022-08-22T21:34:31.311Z,68.30
2022-08-22T21:37:12.773Z,67.49
2022-08-22T21:39:47.677Z,67.29
2022-08-22T21:42:37.201Z,66.89
2022-08-22T21:45:24.930Z,65.68
2022-08-22T21:47:51.538Z,66.42
2022-08-22T21:50:20.656Z,67.96
2022-08-22T21:52:56.116Z,67.41
2022-08-22T21:55:26.303Z,67.91
2022-08-22T21:58:09.074Z,68.55
2022-08-22T22:00:59.564Z,68.83
2022-08-22T22:03:34.588Z,69.71
2022-08-22T22:06:03.079Z,69.40
2022-08-22T22:08:31.506Z,69.37
2022-08-22T22:11:06.186Z,69.30
2022-08-22T22:13:35.417Z,69.25
2022-08-22T22:16:02.300Z,68.66
2022-08-22T22:18:31.771Z,69.00
2022-08-22T22:20:58.761Z,69.23
2022-08-22T22:23:26.262Z,69.58
2022-08-22T22:25:54.696Z,69.81
2022-08-22T22:28:29.580Z,69.94
2022-08-22T22:30:56.461Z,69.72
2022-08-22T22:33:27.211Z,70.63
2022-08-22T22:35:55.758Z,70.88
2022-08-22T22:38:24.206Z,71.08
2022-08-22T22:40:52.372Z,71.11
2022-08-22T22:43:18.994Z,71.02
2022-08-22T22:45:45.564Z,71.54
2022-08-22T22:48:13.441Z,71.82
2022-08-22T22:50:50.575Z,71.96
2022-08-22T22:53:19.679Z,71.64
2022-08-22T22:55:59.674Z,71.33
2022-08-22T22:58:27.190Z,71.48
2022-08-22T23:00:53.848Z,71.47
2022-08-22T23:03:20.910Z,72.24
2022-08-22T23:05:47.462Z,71.93
2022-08-22T23:08:14.040Z,71.99
2022-08-22T23:10:40.650Z,71.55
2022-08-22T23:13:07.194Z,71.92
2022-08-22T23:15:33.748Z,72.80
2022-08-22T23:18:00.462Z,72.89
2022-08-22T23:20:27.222Z,73.04
2022-08-22T23:22:53.829Z,73.18
2022-08-22T23:25:20.512Z,73.43
2022-08-22T23:27:52.373Z,73.73
2022-08-22T23:30:21.887Z,73.81
2022-08-22T23:32:48.535Z,73.09
2022-08-22T23:35:15.104Z,72.21
2022-08-22T23:37:41.679Z,71.79
2022-08-22T23:40:09.582Z,72.88
2022-08-22T23:42:36.356Z,73.35
2022-08-22T23:45:03.487Z,73.67
2022-08-22T23:47:30.031Z,73.64
2022-08-22T23:49:56.566Z,73.63
2022-08-22T23:52:23.103Z,73.16
2022-08-22T23:54:54.318Z,72.92
2022-08-22T23:57:27.372Z,73.13
2022-08-22T23:59:57.434Z,72.50
